Time;durP1;ratioP1;P1;durP2;ratioP2;P2;SDS_P1;SDS_P2;PMS_P1;PMS_P2;Temp;Humidity;BMP_temperature;BMP_pressure;BME280_temperature;BME280_humidity;BME280_pressure;Samples;Min_cycle;Max_cycle;Signal;HPM_P1;HPM_P2
2023/09/27 13:30:52;;;;;;;4.00;2.50;;;19.00;88.20;;;;;;5121743;27;20109;-88
2023/09/27 13:33:18;;;;;;;6.97;2.03;;;19.20;87.00;;;;;;5118732;27;20082;-88
2023/09/27 13:35:44;;;;;;;4.78;2.25;;;19.20;87.10;;;;;;5123547;27;20028;-88
2023/09/27 13:38:10;;;;;;;5.13;1.98;;;19.20;87.70;;;;;;5089711;28;20059;-88
2023/09/27 13:40:36;;;;;;;6.95;2.90;;;19.20;86.90;;;;;;5111180;27;20035;-88
2023/09/27 13:43:02;;;;;;;20.23;4.57;;;19.20;86.40;;;;;;5092259;28;20122;-88
2023/09/27 13:45:28;;;;;;;8.00;3.03;;;19.20;86.90;;;;;;5085083;28;20016;-89
2023/09/27 13:47:53;;;;;;;11.57;3.40;;;19.30;86.10;;;;;;5086070;28;20025;-88
2023/09/27 13:50:19;;;;;;;5.93;2.53;;;19.30;85.20;;;;;;5121311;27;20476;-88
2023/09/27 13:52:46;;;;;;;4.80;2.17;;;19.30;85.40;;;;;;5115664;27;20025;-87
2023/09/27 13:55:11;;;;;;;2.42;1.60;;;19.20;85.10;;;;;;5116989;27;20020;-87
2023/09/27 13:57:41;;;;;;;7.35;2.85;;;19.20;84.90;;;;;;5121389;27;20032;-88
2023/09/27 14:00:08;;;;;;;3.95;2.38;;;19.20;85.30;;;;;;5090269;28;20099;-87
2023/09/27 14:02:37;;;;;;;4.65;2.15;;;19.10;84.90;;;;;;5087904;28;20032;-87
2023/09/27 14:05:03;;;;;;;2.25;1.88;;;19.00;85.30;;;;;;5108597;28;20536;-86
2023/09/27 14:07:30;;;;;;;5.10;2.42;;;19.10;85.50;;;;;;5090518;28;20035;-87
2023/09/27 14:09:56;;;;;;;7.93;3.58;;;19.10;85.60;;;;;;5108011;28;20076;-88
2023/09/27 14:12:22;;;;;;;12.27;2.83;;;19.10;84.90;;;;;;5089296;28;20067;-87
2023/09/27 14:14:50;;;;;;;5.50;2.47;;;19.20;84.60;;;;;;5090771;28;20024;-88
2023/09/27 14:17:15;;;;;;;4.97;2.20;;;19.10;85.10;;;;;;5088030;28;20032;-89
2023/09/27 14:19:41;;;;;;;4.30;2.40;;;19.10;85.50;;;;;;5117659;27;20085;-88
2023/09/27 14:22:07;;;;;;;4.22;2.40;;;19.10;84.70;;;;;;5092487;28;20028;-88
2023/09/27 14:24:33;;;;;;;4.57;2.42;;;19.00;85.90;;;;;;5103347;28;20352;-88
2023/09/27 14:27:01;;;;;;;5.07;2.15;;;19.00;85.40;;;;;;5090613;28;20755;-88
2023/09/27 14:29:28;;;;;;;4.18;2.40;;;19.10;86.20;;;;;;5119180;27;20035;-87
2023/09/27 14:31:54;;;;;;;3.72;2.38;;;19.10;85.80;;;;;;5116731;27;20476;-88
2023/09/27 14:34:19;;;;;;;4.10;2.13;;;19.10;85.90;;;;;;5090855;28;20048;-88
2023/09/27 14:36:45;;;;;;;6.75;2.30;;;19.00;85.80;;;;;;5116917;27;20020;-88
2023/09/27 14:39:14;;;;;;;4.97;1.90;;;19.00;85.80;;;;;;5089802;28;20023;-88
2023/09/27 14:41:44;;;;;;;3.60;2.17;;;19.20;85.20;;;;;;5078698;28;20020;-88
2023/09/27 14:44:12;;;;;;;4.77;2.60;;;19.10;85.20;;;;;;5075545;28;20278;-88
2023/09/27 14:46:38;;;;;;;5.63;2.15;;;19.00;85.90;;;;;;5104998;27;20024;-88
2023/09/27 14:49:04;;;;;;;5.57;2.58;;;19.00;86.50;;;;;;5074149;28;20084;-89
2023/09/27 14:51:31;;;;;;;5.55;2.33;;;19.00;87.10;;;;;;5074077;28;20127;-88
2023/09/27 14:53:57;;;;;;;4.03;2.38;;;19.00;87.50;;;;;;5107851;27;20102;-89
2023/09/27 14:56:22;;;;;;;5.38;2.13;;;19.00;88.20;;;;;;5090072;28;20020;-88
2023/09/27 14:58:48;;;;;;;11.75;2.42;;;19.00;88.50;;;;;;5077965;28;20024;-88
2023/09/27 15:01:16;;;;;;;3.05;2.45;;;19.00;88.60;;;;;;5109239;27;20019;-88
2023/09/27 15:03:42;;;;;;;4.10;2.40;;;19.00;88.80;;;;;;5074604;28;20024;-88
2023/09/27 15:06:07;;;;;;;7.25;2.88;;;19.00;89.80;;;;;;5072555;28;20019;-87
2023/09/27 15:08:33;;;;;;;5.35;2.45;;;19.00;88.90;;;;;;5072989;28;20070;-87
2023/09/27 15:10:59;;;;;;;4.82;2.70;;;19.00;88.60;;;;;;5104901;27;20093;-87
2023/09/27 15:13:26;;;;;;;6.15;3.20;;;19.00;88.90;;;;;;5100340;27;20025;-87
2023/09/27 15:15:52;;;;;;;4.22;2.63;;;19.00;88.70;;;;;;5107873;27;20029;-83
2023/09/27 15:18:18;;;;;;;7.97;3.70;;;19.00;89.80;;;;;;5089148;28;20526;-90
2023/09/27 15:20:45;;;;;;;6.18;3.28;;;19.20;88.80;;;;;;5088159;28;20020;-90
2023/09/27 15:23:11;;;;;;;7.03;2.72;;;19.40;87.80;;;;;;5077492;28;20042;-89
2023/09/27 15:25:37;;;;;;;5.60;2.90;;;19.40;87.70;;;;;;5087112;28;20020;-95
2023/09/27 15:28:03;;;;;;;3.03;2.50;;;19.40;88.10;;;;;;5093849;28;20029;-84
2023/09/27 15:30:29;;;;;;;8.07;2.88;;;19.40;87.90;;;;;;5075862;28;20151;-86
2023/09/27 15:32:55;;;;;;;4.25;2.63;;;19.70;87.00;;;;;;5098271;27;20039;-83
2023/09/27 15:35:20;;;;;;;5.60;2.75;;;19.70;86.90;;;;;;5073944;28;20020;-82
2023/09/27 15:37:54;;;;;;;5.25;3.40;;;19.70;87.10;;;;;;5106308;27;20041;-83
2023/09/27 15:40:20;;;;;;;6.22;3.20;;;19.60;87.50;;;;;;5102284;27;20447;-82
2023/09/27 15:42:51;;;;;;;7.55;2.80;;;19.60;88.00;;;;;;5089980;28;20024;-82
2023/09/27 15:45:17;;;;;;;3.95;2.80;;;19.60;88.20;;;;;;5088158;28;20019;-82
2023/09/27 15:47:42;;;;;;;4.30;3.05;;;19.50;88.50;;;;;;5075201;28;20077;-83
2023/09/27 15:50:12;;;;;;;4.60;3.13;;;19.50;88.80;;;;;;5104876;28;20037;-84
2023/09/27 15:52:38;;;;;;;3.63;2.63;;;19.50;89.20;;;;;;5090094;28;20475;-83
2023/09/27 15:55:06;;;;;;;6.05;3.22;;;19.40;89.70;;;;;;5103575;27;20043;-82
2023/09/27 15:57:31;;;;;;;5.72;3.22;;;19.40;90.00;;;;;;5082587;28;20025;-81
2023/09/27 15:59:58;;;;;;;8.00;3.25;;;19.40;90.10;;;;;;5100477;28;20119;-82
2023/09/27 16:02:24;;;;;;;6.63;3.35;;;19.40;90.30;;;;;;5066475;28;20017;-80
2023/09/27 16:04:49;;;;;;;9.77;3.22;;;19.30;90.40;;;;;;5089066;28;20020;-82
2023/09/27 16:07:15;;;;;;;7.57;3.13;;;19.30;90.50;;;;;;5090779;28;20376;-82
2023/09/27 16:09:40;;;;;;;7.05;3.00;;;19.30;90.60;;;;;;5088239;28;20032;-82
2023/09/27 16:12:06;;;;;;;10.40;3.67;;;19.30;90.70;;;;;;5090329;28;20013;-82
2023/09/27 16:14:32;;;;;;;6.28;3.88;;;19.20;90.70;;;;;;5102268;27;20078;-82
2023/09/27 16:16:58;;;;;;;9.73;3.70;;;19.20;90.80;;;;;;5105394;27;20020;-82
2023/09/27 16:19:25;;;;;;;7.72;3.35;;;19.20;90.80;;;;;;5090189;28;20045;-82
2023/09/27 16:21:51;;;;;;;7.93;3.50;;;19.20;90.90;;;;;;5085247;28;20062;-82
2023/09/27 16:24:17;;;;;;;6.43;3.65;;;19.20;90.90;;;;;;5069763;28;20481;-82
2023/09/27 16:26:43;;;;;;;6.97;3.72;;;19.10;91.00;;;;;;5073136;28;20024;-82
2023/09/27 16:29:08;;;;;;;11.27;4.32;;;19.10;91.00;;;;;;5103456;27;20046;-82
2023/09/27 16:31:35;;;;;;;6.05;3.63;;;19.10;91.10;;;;;;5083821;28;20012;-82
2023/09/27 16:34:02;;;;;;;4.95;3.47;;;19.10;91.10;;;;;;5088203;28;20056;-81
2023/09/27 16:36:28;;;;;;;8.00;4.70;;;19.10;91.10;;;;;;5085767;28;20046;-81
2023/09/27 16:38:54;;;;;;;5.10;3.80;;;19.00;91.10;;;;;;5096354;28;20024;-81
2023/09/27 16:41:20;;;;;;;6.82;3.70;;;19.00;91.20;;;;;;5089932;28;20021;-82
2023/09/27 16:43:47;;;;;;;7.00;3.25;;;19.00;91.20;;;;;;5090934;28;20418;-81
2023/09/27 16:46:13;;;;;;;4.90;3.75;;;19.00;91.30;;;;;;5082985;28;20028;-81
2023/09/27 16:48:38;;;;;;;6.45;3.72;;;19.00;91.30;;;;;;5071448;28;20381;-81
2023/09/27 16:51:04;;;;;;;12.57;4.32;;;19.00;91.40;;;;;;5088825;28;20353;-81
2023/09/27 16:53:30;;;;;;;7.70;4.40;;;19.00;91.40;;;;;;5076322;28;20024;-82
2023/09/27 16:55:55;;;;;;;16.95;4.80;;;19.00;91.50;;;;;;5087504;28;20020;-81
2023/09/27 16:58:22;;;;;;;6.80;3.75;;;18.90;91.50;;;;;;5085404;28;20468;-81
2023/09/27 17:00:48;;;;;;;5.72;3.80;;;18.90;91.50;;;;;;5092324;28;20494;-81
2023/09/27 17:03:16;;;;;;;5.15;3.50;;;18.90;91.50;;;;;;5087567;28;20024;-81
2023/09/27 17:05:44;;;;;;;5.65;4.05;;;18.90;91.60;;;;;;5085269;28;20088;-81
2023/09/27 17:08:09;;;;;;;8.48;4.07;;;18.90;91.70;;;;;;5087409;28;20020;-81
2023/09/27 17:10:35;;;;;;;4.85;3.90;;;18.90;91.70;;;;;;5087389;28;20139;-80
2023/09/27 17:13:01;;;;;;;7.03;4.40;;;18.90;91.80;;;;;;5087905;28;20021;-80
2023/09/27 17:15:27;;;;;;;10.07;4.70;;;18.80;92.00;;;;;;5070961;28;20020;-81
2023/09/27 17:17:53;;;;;;;12.25;4.38;;;18.80;92.00;;;;;;5089925;28;20727;-80
2023/09/27 17:20:18;;;;;;;7.53;4.55;;;18.80;92.10;;;;;;5096929;28;20020;-80
2023/09/27 17:22:44;;;;;;;11.85;4.82;;;18.80;92.10;;;;;;5088345;28;20046;-79
2023/09/27 17:25:11;;;;;;;13.02;5.25;;;18.80;92.00;;;;;;5083848;28;20225;-80
2023/09/27 17:27:37;;;;;;;10.85;5.10;;;18.80;92.00;;;;;;5089727;28;20024;-80
2023/09/27 17:30:05;;;;;;;9.88;6.15;;;18.70;91.90;;;;;;5071718;28;20035;-86
2023/09/27 17:32:31;;;;;;;9.80;5.18;;;18.70;91.90;;;;;;5073887;28;20095;-94
2023/09/27 17:34:56;;;;;;;8.25;5.32;;;18.70;92.00;;;;;;5071386;28;20051;-94
2023/09/27 17:37:22;;;;;;;12.27;6.65;;;18.70;92.00;;;;;;5106373;28;20482;-92
2023/09/27 17:39:47;;;;;;;10.13;4.75;;;19.20;92.10;;;;;;5087718;28;20043;-95
2023/09/27 17:42:13;;;;;;;19.73;7.50;;;18.70;91.90;;;;;;5068031;28;20017;-95
2023/09/27 17:44:39;;;;;;;8.63;6.10;;;18.70;92.20;;;;;;5076272;28;20031;-94
2023/09/27 17:47:04;;;;;;;9.35;5.68;;;18.60;91.80;;;;;;5072466;28;20028;-95
2023/09/27 17:49:30;;;;;;;8.38;4.78;;;18.70;91.80;;;;;;5071090;28;20036;-96
2023/09/27 17:51:56;;;;;;;9.25;5.05;;;18.60;91.80;;;;;;5074654;28;20074;-95
2023/09/27 17:54:22;;;;;;;8.77;4.82;;;18.60;91.80;;;;;;5070093;28;20028;-94
2023/09/27 17:56:50;;;;;;;6.80;4.38;;;18.60;91.80;;;;;;5105066;28;20035;-95
2023/09/27 17:59:16;;;;;;;7.63;4.60;;;18.60;91.80;;;;;;5102117;28;20027;-94
2023/09/27 18:01:42;;;;;;;8.57;4.22;;;18.60;91.80;;;;;;5101247;28;20812;-94
2023/09/27 18:04:08;;;;;;;10.68;5.57;;;18.60;91.80;;;;;;5072341;28;20032;-95
2023/09/27 18:06:34;;;;;;;10.57;5.80;;;18.60;91.80;;;;;;5104695;28;20020;-94
2023/09/27 18:09:00;;;;;;;8.63;4.70;;;18.60;91.80;;;;;;5076475;28;20599;-94
2023/09/27 18:11:26;;;;;;;7.85;4.32;;;18.60;91.80;;;;;;5105770;28;20099;-93
2023/09/27 18:13:51;;;;;;;8.88;5.40;;;18.60;91.70;;;;;;5104078;28;20016;-94
2023/09/27 18:16:19;;;;;;;6.47;4.72;;;18.60;91.80;;;;;;5103645;27;20096;-93
2023/09/27 18:18:46;;;;;;;11.27;4.95;;;18.60;91.70;;;;;;5106559;27;20024;-94
2023/09/27 18:21:14;;;;;;;8.02;4.65;;;18.60;91.70;;;;;;5105374;27;20472;-94
2023/09/27 18:23:43;;;;;;;13.95;5.10;;;18.50;91.70;;;;;;5106925;27;20115;-94
2023/09/27 18:26:13;;;;;;;9.20;4.80;;;18.50;91.60;;;;;;5108952;27;20017;-95
2023/09/27 18:28:38;;;;;;;9.52;5.68;;;18.50;91.60;;;;;;5104624;27;20123;-94
2023/09/27 18:31:05;;;;;;;10.70;5.72;;;18.50;91.60;;;;;;5073997;28;20131;-94
2023/09/27 18:33:31;;;;;;;17.13;6.25;;;18.50;91.60;;;;;;5109283;27;20016;-94
2023/09/27 18:35:57;;;;;;;14.73;5.90;;;18.50;91.60;;;;;;5080502;28;20127;-93
2023/09/27 18:38:23;;;;;;;11.65;5.35;;;18.50;91.60;;;;;;5070732;28;20024;-94
2023/09/27 18:40:49;;;;;;;14.60;5.28;;;18.50;91.60;;;;;;5080020;28;20105;-93
2023/09/27 18:43:16;;;;;;;8.55;5.22;;;18.50;91.60;;;;;;5087928;28;20464;-94
2023/09/27 18:45:45;;;;;;;12.68;5.10;;;18.50;91.50;;;;;;5107386;27;20027;-93
2023/09/27 18:48:12;;;;;;;8.15;4.78;;;18.50;91.50;;;;;;5096292;27;20021;-93
2023/09/27 18:50:39;;;;;;;11.48;4.85;;;18.50;91.50;;;;;;5104846;27;20048;-95
2023/09/27 18:53:06;;;;;;;10.27;5.18;;;18.50;91.50;;;;;;5087671;28;20632;-94
2023/09/27 18:55:32;;;;;;;8.60;5.78;;;18.50;91.50;;;;;;5108963;27;20035;-94
2023/09/27 18:57:58;;;;;;;8.23;5.38;;;19.30;91.70;;;;;;5076240;28;20028;-94
2023/09/27 19:00:23;;;;;;;16.65;5.80;;;18.50;91.40;;;;;;5105947;27;20027;-94
2023/09/27 19:02:49;;;;;;;9.65;5.28;;;18.50;91.40;;;;;;5077408;28;20043;-94
2023/09/27 19:05:14;;;;;;;8.23;5.45;;;18.50;91.50;;;;;;5104155;27;20055;-93
2023/09/27 19:07:40;;;;;;;9.20;4.95;;;18.50;91.50;;;;;;5071136;28;20095;-94
2023/09/27 19:10:07;;;;;;;7.93;5.15;;;18.40;91.40;;;;;;5090801;28;20024;-93
2023/09/27 19:12:33;;;;;;;9.27;5.25;;;18.50;91.40;;;;;;5104307;27;20032;-95
2023/09/27 19:14:58;;;;;;;8.10;4.80;;;18.50;91.40;;;;;;5107722;27;20027;-94
2023/09/27 19:17:24;;;;;;;12.30;5.20;;;18.40;91.40;;;;;;5102615;27;20024;-94
2023/09/27 19:19:50;;;;;;;12.23;5.95;;;18.60;91.50;;;;;;5107710;27;20023;-93
2023/09/27 19:22:15;;;;;;;11.38;5.68;;;18.40;91.40;;;;;;5105025;27;20476;-95
2023/09/27 19:24:42;;;;;;;7.15;4.90;;;18.40;91.40;;;;;;5070594;28;20021;-95
2023/09/27 19:27:07;;;;;;;12.02;5.50;;;18.40;91.40;;;;;;5078808;28;20020;-93
2023/09/27 19:29:33;;;;;;;9.98;5.95;;;18.40;91.40;;;;;;5090651;28;20035;-93
2023/09/27 19:31:58;;;;;;;7.88;5.40;;;18.40;91.40;;;;;;5105232;27;20032;-93
2023/09/27 19:34:24;;;;;;;14.43;5.85;;;18.40;91.40;;;;;;5099936;27;20023;-94
2023/09/27 19:36:49;;;;;;;9.48;6.18;;;18.40;91.40;;;;;;5103570;27;20024;-94
2023/09/27 19:39:16;;;;;;;14.70;7.32;;;18.40;91.40;;;;;;5103293;27;20570;-92
2023/09/27 19:41:42;;;;;;;34.92;13.52;;;18.40;91.40;;;;;;5106455;27;20040;-94
2023/09/27 19:44:08;;;;;;;27.95;12.20;;;18.40;91.40;;;;;;5077343;28;20020;-93
2023/09/27 19:46:34;;;;;;;15.18;7.28;;;18.40;91.40;;;;;;5073660;28;20031;-94
2023/09/27 19:49:01;;;;;;;10.70;6.25;;;18.90;91.50;;;;;;5075429;28;20036;-94
2023/09/27 19:51:27;;;;;;;10.55;5.25;;;18.40;91.40;;;;;;5071168;28;20017;-94
2023/09/27 19:53:54;;;;;;;10.63;5.35;;;18.40;91.30;;;;;;5072227;28;20020;-93
2023/09/27 19:56:21;;;;;;;8.77;6.43;;;18.40;91.40;;;;;;5100524;27;20036;-94
2023/09/27 19:58:47;;;;;;;17.75;6.38;;;18.40;91.40;;;;;;5100458;27;20028;-94
2023/09/27 20:01:25;;;;;;;12.95;6.95;;;18.40;91.30;;;;;;5104948;27;20023;-95
2023/09/27 20:03:51;;;;;;;11.45;6.35;;;18.40;91.40;;;;;;5071880;28;20134;-94
2023/09/27 20:06:17;;;;;;;12.05;6.90;;;18.40;91.40;;;;;;5101882;27;20041;-94
2023/09/27 20:08:42;;;;;;;12.82;5.53;;;18.40;91.40;;;;;;5106227;27;20670;-93
2023/09/27 20:11:11;;;;;;;8.55;5.55;;;18.40;91.40;;;;;;5075115;28;20016;-92
2023/09/27 20:13:36;;;;;;;10.70;6.32;;;18.40;91.30;;;;;;5074356;28;20028;-95
2023/09/27 20:16:02;;;;;;;7.97;5.90;;;18.30;91.30;;;;;;5102004;27;20672;-93
2023/09/27 20:18:28;;;;;;;9.15;5.90;;;18.40;91.30;;;;;;5089866;28;20047;-94
2023/09/27 20:20:53;;;;;;;11.60;6.00;;;18.40;91.30;;;;;;5107795;27;20015;-94
2023/09/27 20:23:19;;;;;;;10.20;5.63;;;18.40;91.30;;;;;;5106447;27;20026;-94
2023/09/27 20:25:44;;;;;;;11.05;5.07;;;18.40;91.30;;;;;;5070862;28;20115;-93
2023/09/27 20:28:11;;;;;;;7.97;5.43;;;18.40;91.30;;;;;;5074995;28;20420;-94
2023/09/27 20:30:36;;;;;;;12.02;5.05;;;18.30;91.30;;;;;;5070943;28;20032;-93
2023/09/27 20:33:03;;;;;;;9.05;5.05;;;18.40;91.30;;;;;;5091888;28;20495;-93
2023/09/27 20:35:29;;;;;;;7.18;4.65;;;18.40;91.30;;;;;;5102635;27;20013;-94
2023/09/27 20:37:55;;;;;;;7.50;4.97;;;18.40;91.30;;;;;;5090865;28;20027;-95
2023/09/27 20:40:20;;;;;;;10.20;5.32;;;18.40;91.30;;;;;;5104725;27;20060;-94
2023/09/27 20:42:46;;;;;;;10.48;5.20;;;18.40;91.30;;;;;;5101113;28;20028;-93
2023/09/27 20:45:12;;;;;;;8.68;6.15;;;18.40;91.30;;;;;;5103252;27;20467;-94
2023/09/27 20:47:38;;;;;;;10.90;6.28;;;18.30;91.20;;;;;;5068600;28;20028;-92
2023/09/27 20:50:04;;;;;;;11.63;6.18;;;18.40;91.20;;;;;;5076458;28;20027;-95
2023/09/27 20:52:30;;;;;;;13.18;5.90;;;18.30;91.20;;;;;;5069030;28;20027;-93
2023/09/27 20:54:55;;;;;;;12.60;5.45;;;18.30;91.20;;;;;;5088246;28;20028;-94
2023/09/27 20:57:24;;;;;;;9.40;5.30;;;18.30;91.60;;;;;;5103083;27;20064;-95
2023/09/27 20:59:50;;;;;;;9.50;5.97;;;18.30;91.20;;;;;;5106725;27;20487;-94
